createdAt,value
2018-04-15T08:01:43.797Z,20.10
2018-04-15T08:04:12.539Z,20.00
2018-04-15T08:06:41.459Z,20.00
2018-04-15T08:09:11.171Z,20.10
2018-04-15T08:11:40.211Z,20.10
2018-04-15T08:14:11.266Z,20.20
2018-04-15T08:16:39.998Z,20.00
2018-04-15T08:19:08.989Z,20.20
2018-04-15T08:21:37.930Z,20.20
2018-04-15T08:24:07.433Z,20.10
2018-04-15T08:26:37.654Z,19.60
2018-04-15T08:29:07.760Z,20.60
2018-04-15T08:31:36.480Z,20.10
2018-04-15T08:34:10.792Z,20.10
2018-04-15T08:36:39.490Z,20.20
2018-04-15T08:39:08.223Z,20.20
2018-04-15T08:41:36.908Z,20.20
2018-04-15T08:44:05.947Z,20.20
2018-04-15T08:46:34.636Z,20.20
2018-04-15T08:49:03.621Z,20.10
2018-04-15T08:51:32.505Z,20.20
2018-04-15T08:54:02.241Z,20.10
2018-04-15T08:56:30.958Z,20.10
2018-04-15T08:58:59.659Z,20.10
2018-04-15T09:01:28.367Z,20.10
2018-04-15T09:03:57.895Z,20.20
2018-04-15T09:06:26.666Z,20.10
2018-04-15T09:08:55.703Z,20.10
2018-04-15T09:11:24.608Z,20.10
2018-04-15T09:13:53.321Z,20.10
2018-04-15T09:16:22.017Z,20.10
2018-04-15T09:18:51.761Z,20.10
2018-04-15T09:21:20.504Z,20.10
2018-04-15T09:23:49.299Z,20.10
2018-04-15T09:26:24.633Z,20.10
2018-04-15T09:28:53.430Z,20.10
2018-04-15T09:31:22.955Z,20.00
2018-04-15T09:33:51.730Z,20.00
2018-04-15T09:36:21.490Z,20.00
2018-04-15T09:38:50.257Z,20.10
2018-04-15T09:41:18.974Z,20.00
2018-04-15T09:43:47.679Z,20.00
2018-04-15T09:46:16.713Z,20.00
2018-04-15T09:48:45.653Z,19.70
2018-04-15T09:51:14.542Z,20.00
2018-04-15T09:53:43.486Z,20.00
2018-04-15T09:56:12.217Z,20.00
2018-04-15T09:58:40.899Z,20.10
2018-04-15T10:01:12.976Z,20.10
2018-04-15T10:05:36.367Z,20.20
2018-04-15T10:08:06.164Z,20.10
2018-04-15T10:10:34.911Z,19.80
2018-04-15T10:13:03.839Z,20.10
2018-04-15T10:15:32.990Z,20.20
2018-04-15T10:18:03.048Z,20.30
2018-04-15T10:20:33.070Z,20.20
2018-04-15T10:23:01.782Z,20.30
2018-04-15T10:25:39.545Z,20.30
2018-04-15T10:28:08.298Z,20.30
2018-04-15T10:30:37.557Z,20.40
2018-04-15T10:33:06.307Z,20.30
2018-04-15T10:35:35.326Z,20.30
2018-04-15T10:38:04.201Z,20.20
2018-04-15T10:40:32.904Z,20.20
2018-04-15T10:43:02.114Z,20.20
2018-04-15T10:45:30.866Z,21.40
2018-04-15T10:47:59.655Z,20.10
2018-04-15T10:50:28.698Z,20.20
2018-04-15T10:52:57.768Z,20.30
2018-04-15T10:55:26.442Z,20.30
2018-04-15T10:57:55.220Z,20.40
2018-04-15T11:00:24.286Z,20.40
2018-04-15T11:02:53.886Z,20.40
2018-04-15T11:05:22.754Z,20.40
2018-04-15T11:07:51.505Z,20.40
2018-04-15T11:10:20.315Z,20.50
2018-04-15T11:12:49.838Z,20.50
2018-04-15T11:15:19.393Z,20.50
2018-04-15T11:17:48.424Z,20.40
2018-04-15T11:20:17.189Z,20.50
2018-04-15T11:22:46.483Z,20.50
2018-04-15T11:25:16.088Z,20.50
2018-04-15T11:27:45.077Z,20.60
2018-04-15T11:30:13.781Z,20.60
2018-04-15T11:32:42.575Z,20.60
2018-04-15T11:35:11.852Z,20.50
2018-04-15T11:37:40.598Z,20.50
2018-04-15T11:40:09.379Z,20.50
2018-04-15T11:42:38.150Z,20.50
2018-04-15T11:45:07.400Z,20.60
2018-04-15T11:47:36.983Z,20.60
2018-04-15T11:50:06.830Z,20.50
2018-04-15T11:52:35.958Z,20.50
2018-04-15T11:55:05.330Z,20.50
2018-04-15T11:57:34.389Z,20.50
2018-04-15T12:00:03.979Z,20.50
2018-04-15T12:02:32.843Z,20.50
2018-04-15T12:05:01.561Z,20.50
2018-04-15T12:07:30.421Z,20.50
2018-04-15T12:09:59.247Z,20.50
2018-04-15T12:12:28.384Z,20.50
2018-04-15T12:14:57.410Z,20.50
2018-04-15T12:17:26.265Z,20.50
2018-04-15T12:19:55.079Z,20.60
2018-04-15T12:22:24.418Z,20.60
2018-04-15T12:24:53.251Z,20.60
2018-04-15T12:27:22.327Z,20.60
2018-04-15T12:29:53.420Z,20.50
2018-04-15T12:32:22.719Z,20.50
2018-04-15T12:34:51.643Z,20.70
2018-04-15T12:37:21.049Z,20.50
2018-04-15T12:39:51.290Z,20.50
2018-04-15T12:42:21.239Z,20.50
2018-04-15T12:44:50.139Z,20.40
2018-04-15T12:47:18.997Z,20.50
2018-04-15T12:49:47.777Z,20.50
2018-04-15T12:52:17.659Z,20.50
2018-04-15T12:54:48.766Z,20.50
2018-04-15T12:57:18.418Z,20.50
2018-04-15T12:59:48.619Z,20.50
2018-04-15T13:02:18.654Z,20.50
2018-04-15T13:04:47.770Z,20.50
2018-04-15T13:07:17.748Z,20.50
2018-04-15T13:09:46.589Z,20.50
2018-04-15T13:12:16.227Z,20.50
2018-04-15T13:14:45.386Z,20.50
2018-04-15T13:17:15.056Z,20.60
2018-04-15T13:19:43.885Z,20.50
2018-04-15T13:22:12.672Z,20.60
2018-04-15T13:24:41.891Z,20.60
2018-04-15T13:27:10.659Z,20.60
2018-04-15T13:29:40.200Z,20.60
2018-04-15T13:32:09.045Z,20.60
2018-04-15T13:34:38.564Z,20.70
2018-04-15T13:37:07.672Z,20.70
2018-04-15T13:39:36.512Z,20.70
2018-04-15T13:42:05.800Z,20.70
2018-04-15T13:44:34.612Z,20.70
2018-04-15T13:47:03.647Z,20.80
2018-04-15T13:49:32.384Z,20.80
2018-04-15T13:52:01.716Z,20.80
2018-04-15T13:54:35.128Z,20.80
2018-04-15T13:57:05.343Z,20.70
2018-04-15T13:59:34.497Z,20.80
2018-04-15T14:02:03.420Z,21.30
2018-04-15T14:04:32.975Z,20.80
2018-04-15T14:07:01.982Z,20.70
2018-04-15T14:09:31.156Z,20.80
2018-04-15T14:11:59.914Z,20.80
2018-04-15T14:14:29.457Z,20.80
2018-04-15T14:16:58.210Z,20.70
2018-04-15T14:19:28.320Z,20.80
2018-04-15T14:21:57.209Z,20.70
2018-04-15T14:24:26.837Z,20.80
2018-04-15T14:26:55.607Z,20.70
2018-04-15T14:29:25.542Z,20.80
2018-04-15T14:31:54.393Z,20.70
2018-04-15T14:34:23.161Z,20.80
2018-04-15T14:36:52.551Z,20.80
2018-04-15T14:39:21.367Z,20.80
2018-04-15T14:41:50.198Z,20.80
2018-04-15T14:44:19.420Z,20.60
2018-04-15T14:46:48.397Z,20.90
2018-04-15T14:49:18.142Z,20.90
2018-04-15T14:51:46.960Z,20.80
2018-04-15T14:54:16.732Z,20.90
2018-04-15T14:56:45.548Z,20.80
2018-04-15T14:59:14.997Z,20.90
2018-04-15T15:01:43.944Z,20.90
2018-04-15T15:04:12.738Z,20.80
2018-04-15T15:06:41.581Z,20.90
2018-04-15T15:09:10.709Z,20.90
2018-04-15T15:11:40.098Z,20.90
2018-04-15T15:14:11.163Z,20.90
2018-04-15T15:16:40.143Z,20.90
2018-04-15T15:19:09.097Z,20.90
2018-04-15T15:21:38.452Z,20.80
2018-04-15T15:24:07.214Z,20.90
2018-04-15T15:26:36.485Z,20.80
2018-04-15T15:29:05.562Z,20.80
2018-04-15T15:31:35.447Z,20.90
2018-04-15T15:34:04.616Z,20.80
2018-04-15T15:36:33.526Z,20.80
2018-04-15T15:39:02.595Z,20.80
2018-04-15T15:41:31.435Z,20.80
2018-04-15T15:44:01.410Z,20.80
2018-04-15T15:46:30.310Z,20.80
2018-04-15T15:48:59.215Z,20.80
2018-04-15T15:51:28.118Z,20.80
2018-04-15T15:53:58.239Z,20.80
2018-04-15T15:56:27.180Z,20.80
2018-04-15T15:58:55.959Z,20.80
2018-04-15T16:01:24.693Z,20.80
2018-04-15T16:03:54.085Z,20.80
2018-04-15T16:06:22.839Z,20.80
2018-04-15T16:08:51.684Z,20.80
2018-04-15T16:11:20.560Z,21.00
2018-04-15T16:13:49.894Z,20.70
2018-04-15T16:16:19.586Z,20.80
2018-04-15T16:18:49.207Z,20.80
2018-04-15T16:21:17.998Z,20.70
2018-04-15T16:23:46.735Z,20.70
2018-04-15T16:26:15.627Z,20.20
2018-04-15T16:28:44.654Z,20.80
2018-04-15T16:31:13.477Z,20.70
2018-04-15T16:33:43.090Z,20.70
2018-04-15T16:36:12.241Z,20.70
2018-04-15T16:38:41.762Z,20.70
2018-04-15T16:41:10.554Z,20.70
2018-04-15T16:43:39.285Z,20.70
2018-04-15T16:46:08.013Z,20.70
2018-04-15T16:48:36.808Z,20.80
2018-04-15T16:51:05.873Z,20.70
2018-04-15T16:53:34.587Z,20.80
2018-04-15T16:56:03.483Z,20.70
2018-04-15T16:58:32.217Z,20.70
2018-04-15T17:01:01.383Z,20.70
2018-04-15T17:03:30.886Z,20.70
2018-04-15T17:05:59.688Z,20.70
2018-04-15T17:08:29.264Z,20.70
2018-04-15T17:10:58.336Z,20.70
2018-04-15T17:13:27.371Z,20.70
2018-04-15T17:15:56.143Z,20.70
2018-04-15T17:18:24.884Z,20.70
2018-04-15T17:20:53.876Z,20.70
2018-04-15T17:23:22.753Z,20.70
2018-04-15T17:25:52.308Z,20.70
2018-04-15T17:28:21.083Z,20.70
2018-04-15T17:30:50.098Z,20.70
2018-04-15T17:33:18.900Z,20.70
2018-04-15T17:35:47.628Z,20.70
2018-04-15T17:38:16.343Z,20.70
2018-04-15T17:40:45.443Z,20.70
2018-04-15T17:43:14.279Z,20.70
2018-04-15T17:45:43.935Z,20.70
2018-04-15T17:48:12.648Z,20.70
2018-04-15T17:50:41.658Z,20.70
2018-04-15T17:53:10.467Z,20.70
2018-04-15T17:55:40.027Z,20.70
2018-04-15T17:58:08.923Z,20.70
2018-04-15T18:00:37.941Z,20.70
2018-04-15T18:03:06.702Z,20.50
2018-04-15T18:05:35.486Z,20.80
2018-04-15T18:08:04.375Z,20.80
2018-04-15T18:10:34.175Z,20.80
2018-04-15T18:13:03.047Z,20.70
2018-04-15T18:15:31.792Z,20.80
2018-04-15T18:18:00.526Z,20.80
2018-04-15T18:20:29.717Z,20.80
2018-04-15T18:23:00.787Z,21.00
2018-04-15T18:25:29.563Z,20.80
2018-04-15T18:27:58.394Z,20.80
2018-04-15T18:30:27.103Z,20.80
2018-04-15T18:32:57.415Z,20.80
2018-04-15T18:35:26.448Z,20.80
2018-04-15T18:37:55.971Z,20.80
2018-04-15T18:40:25.574Z,20.80
2018-04-15T18:42:55.070Z,20.80
2018-04-15T18:45:24.125Z,20.80
2018-04-15T18:47:53.109Z,20.90
2018-04-15T18:50:22.062Z,20.90
2018-04-15T18:52:50.861Z,20.90
2018-04-15T18:55:19.832Z,20.90
2018-04-15T18:57:48.651Z,20.90
2018-04-15T19:00:17.420Z,20.90
2018-04-15T19:02:46.204Z,20.80
2018-04-15T19:08:32.322Z,20.90
2018-04-15T19:11:01.091Z,20.90
2018-04-15T19:16:25.537Z,20.90
2018-04-15T19:18:54.734Z,20.90
2018-04-15T19:21:23.797Z,20.90
2018-04-15T19:23:52.557Z,20.90
2018-04-15T19:26:22.104Z,20.90
2018-04-15T19:28:50.825Z,20.90
2018-04-15T19:31:19.712Z,20.90
2018-04-15T19:33:48.588Z,20.90
2018-04-15T19:36:17.366Z,20.90
2018-04-15T19:38:46.179Z,20.90
2018-04-15T19:41:15.772Z,20.90
2018-04-15T19:43:44.953Z,20.90
2018-04-15T19:46:14.039Z,20.90
2018-04-15T19:48:42.837Z,20.90
2018-04-15T19:51:11.638Z,20.90
2018-04-15T19:53:40.770Z,20.90
2018-04-15T19:56:09.605Z,20.90
2018-04-15T19:58:38.369Z,20.90
2018-04-15T20:01:07.998Z,20.90
2018-04-15T20:03:37.035Z,20.90
2018-04-15T20:06:05.840Z,20.90
2018-04-15T20:08:35.357Z,20.90
2018-04-15T20:11:04.979Z,20.90
2018-04-15T20:13:33.748Z,20.80
2018-04-15T20:16:03.663Z,20.30
2018-04-15T20:21:24.917Z,20.80
2018-04-15T20:23:54.796Z,20.80
2018-04-15T20:26:23.608Z,20.80
2018-04-15T20:28:53.298Z,20.80
2018-04-15T20:31:22.197Z,20.80
2018-04-15T20:33:52.302Z,20.80
2018-04-15T20:36:21.041Z,20.80
2018-04-15T20:38:50.074Z,20.80
2018-04-15T21:20:56.114Z,20.70
2018-04-15T21:23:24.879Z,20.90
2018-04-15T21:25:53.587Z,20.90
2018-04-15T21:28:22.374Z,20.90
2018-04-15T21:30:51.399Z,20.90
2018-04-15T21:35:52.301Z,20.90
2018-04-15T21:38:21.650Z,20.90
